createdAt,value
2019-05-10T00:04:36.575Z,3.10
2019-05-10T00:07:23.379Z,3.03
2019-05-10T00:10:00.749Z,3.57
2019-05-10T00:12:38.615Z,3.47
2019-05-10T00:15:07.764Z,3.00
2019-05-10T00:17:36.831Z,3.27
2019-05-10T00:20:14.847Z,3.30
2019-05-10T00:22:43.930Z,3.17
2019-05-10T00:25:13.013Z,3.77
2019-05-10T00:27:41.902Z,3.27
2019-05-10T00:30:24.266Z,3.20
2019-05-10T00:32:53.277Z,3.07
2019-05-10T00:35:23.128Z,3.30
2019-05-10T00:37:52.069Z,3.50
2019-05-10T00:43:04.725Z,2.90
2019-05-10T00:45:33.863Z,3.07
2019-05-10T00:48:02.962Z,2.70
2019-05-10T00:50:40.930Z,3.23
2019-05-10T00:53:10.253Z,3.07
2019-05-10T00:55:42.096Z,2.53
2019-05-10T00:58:11.401Z,3.00
2019-05-10T01:00:49.574Z,2.63
2019-05-10T01:03:24.892Z,3.03
2019-05-10T01:05:56.879Z,3.00
2019-05-10T01:08:25.906Z,2.80
2019-05-10T01:11:04.267Z,2.83
2019-05-10T01:13:33.351Z,3.60
2019-05-10T01:16:04.696Z,3.23
2019-05-10T01:18:33.914Z,3.13
2019-05-10T01:21:12.362Z,3.17
2019-05-10T01:23:41.384Z,3.77
2019-05-10T01:26:10.454Z,3.33
2019-05-10T01:28:40.667Z,3.57
2019-05-10T01:33:56.531Z,3.93
2019-05-10T01:36:28.704Z,3.67
2019-05-10T01:38:57.721Z,3.03
2019-05-10T01:41:27.029Z,3.40
2019-05-10T01:43:56.064Z,3.40
2019-05-10T01:46:26.775Z,3.60
2019-05-10T01:48:58.867Z,3.53
2019-05-10T01:51:36.626Z,3.03
2019-05-10T01:54:05.715Z,3.57
2019-05-10T01:56:34.687Z,4.00
2019-05-10T01:59:03.859Z,3.20
2019-05-10T02:01:42.010Z,3.87
2019-05-10T02:04:18.765Z,3.73
2019-05-10T02:06:50.516Z,3.10
2019-05-10T02:09:19.607Z,3.60
2019-05-10T02:11:57.931Z,3.33
2019-05-10T02:14:27.061Z,3.23
2019-05-10T02:16:56.054Z,3.40
2019-05-10T02:19:25.167Z,3.30
2019-05-10T02:22:05.367Z,4.30
2019-05-10T02:24:34.419Z,3.60
2019-05-10T02:27:04.183Z,3.27
2019-05-10T02:38:50.999Z,3.87
2019-05-10T02:41:47.891Z,3.40
2019-05-10T02:45:31.379Z,3.77
2019-05-10T02:48:09.400Z,3.73
2019-05-10T02:53:37.985Z,3.93
2019-05-10T02:57:06.272Z,3.67
2019-05-10T02:59:38.491Z,3.97
2019-05-10T03:02:08.014Z,4.07
2019-05-10T03:04:47.563Z,4.50
2019-05-10T03:07:18.446Z,4.27
2019-05-10T03:09:50.239Z,4.23
2019-05-10T03:12:26.888Z,4.27
2019-05-10T03:15:08.533Z,3.70
2019-05-10T03:17:39.977Z,4.33
2019-05-10T03:20:11.079Z,5.00
2019-05-10T03:22:43.101Z,4.77
2019-05-10T03:25:21.453Z,4.77
2019-05-10T03:27:50.680Z,5.00
2019-05-10T03:30:19.897Z,5.00
2019-05-10T03:32:49.002Z,5.20
2019-05-10T03:35:27.296Z,4.40
2019-05-10T03:37:56.385Z,4.87
2019-05-10T03:40:27.607Z,5.47
2019-05-10T03:43:59.232Z,5.23
2019-05-10T03:47:42.324Z,5.33
2019-05-10T03:51:07.849Z,6.07
2019-05-10T04:02:50.295Z,5.70
2019-05-10T04:05:40.582Z,6.70
2019-05-10T04:08:13.153Z,5.87
2019-05-10T04:10:44.241Z,6.10
2019-05-10T04:20:25.053Z,5.83
2019-05-10T04:22:54.395Z,6.53
2019-05-10T04:25:48.852Z,6.87
2019-05-10T04:28:50.418Z,6.50
2019-05-10T04:32:07.247Z,6.20
2019-05-10T05:11:59.995Z,5.27
2019-05-10T05:14:35.077Z,4.37
2019-05-10T05:17:14.012Z,4.53
2019-05-10T05:19:51.805Z,4.80
2019-05-10T05:22:21.523Z,4.83
2019-05-10T05:25:01.084Z,4.53
2019-05-10T05:27:48.737Z,4.40
2019-05-10T05:30:24.860Z,4.63
2019-05-10T05:33:32.543Z,4.30
2019-05-10T05:35:56.728Z,4.20
2019-05-10T05:38:46.868Z,4.60
2019-05-10T05:41:15.737Z,4.10
2019-05-10T05:48:04.508Z,3.53
2019-05-10T05:50:36.614Z,3.67
2019-05-10T05:53:06.300Z,4.03
2019-05-10T05:56:50.503Z,3.73
2019-05-10T05:59:23.636Z,4.13
2019-05-10T06:01:50.790Z,4.30
2019-05-10T06:04:45.715Z,3.90
2019-05-10T06:07:20.465Z,3.97
2019-05-10T06:10:19.590Z,4.03
2019-05-10T06:12:50.342Z,3.63
2019-05-10T06:15:23.071Z,3.77
2019-05-10T06:17:56.577Z,3.80
2019-05-10T06:20:21.625Z,4.27
2019-05-10T06:23:05.653Z,3.87
2019-05-10T06:25:38.007Z,3.40
2019-05-10T06:28:01.568Z,4.07
2019-05-10T06:30:32.254Z,3.33
2019-05-10T06:33:12.070Z,3.50
2019-05-10T06:35:33.442Z,3.20
2019-05-10T06:38:11.905Z,3.30
2019-05-10T06:40:46.785Z,2.90
2019-05-10T06:43:13.395Z,3.43
2019-05-10T06:45:46.680Z,3.10
2019-05-10T06:48:33.674Z,2.87
2019-05-10T06:51:08.894Z,2.57
2019-05-10T06:53:42.260Z,2.77
2019-05-10T06:56:08.952Z,2.83
2019-05-10T06:58:51.531Z,2.70
2019-05-10T07:01:21.067Z,2.70
2019-05-10T07:03:51.203Z,2.30
2019-05-10T07:06:20.450Z,2.60
2019-05-10T07:09:00.005Z,2.27
2019-05-10T07:11:29.277Z,2.23
2019-05-10T07:13:58.918Z,2.23
2019-05-10T07:16:28.221Z,2.37
2019-05-10T07:19:06.621Z,2.60
2019-05-10T07:21:38.996Z,1.90
2019-05-10T07:24:11.680Z,2.03
2019-05-10T07:26:48.617Z,2.37
2019-05-10T07:29:29.941Z,1.90
2019-05-10T07:31:57.701Z,2.43
2019-05-10T07:34:27.049Z,2.20
2019-05-10T07:37:01.835Z,1.77
2019-05-10T07:39:39.438Z,2.27
2019-05-10T07:42:18.760Z,2.10
2019-05-10T07:44:48.814Z,1.80
2019-05-10T07:47:23.997Z,1.80
2019-05-10T07:49:55.630Z,2.20
2019-05-10T07:55:21.113Z,1.43
2019-05-10T07:57:44.694Z,1.83
2019-05-10T08:00:13.996Z,2.00
2019-05-10T08:03:02.454Z,2.00
2019-05-10T08:05:24.662Z,1.50
2019-05-10T08:07:58.845Z,1.50
2019-05-10T08:15:08.643Z,1.60
2019-05-10T08:17:52.062Z,1.40
2019-05-10T08:20:37.175Z,2.10
2019-05-10T08:23:12.898Z,1.70
2019-05-10T08:25:53.095Z,1.80
2019-05-10T08:28:22.825Z,1.53
2019-05-10T08:30:58.382Z,1.70
2019-05-10T08:33:34.383Z,1.73
2019-05-10T08:36:05.657Z,1.33
2019-05-10T08:38:39.854Z,1.73
2019-05-10T08:41:08.112Z,1.60
2019-05-10T08:43:47.333Z,1.53
2019-05-10T08:46:19.493Z,1.77
2019-05-10T08:48:51.359Z,1.40
2019-05-10T08:51:25.001Z,1.70
2019-05-10T08:54:02.356Z,1.33
2019-05-10T08:56:33.654Z,1.30
2019-05-10T08:59:04.051Z,1.40
2019-05-10T09:01:44.432Z,1.50
2019-05-10T09:04:14.275Z,1.50
2019-05-10T09:06:47.661Z,1.67
2019-05-10T09:09:14.826Z,1.17
2019-05-10T09:11:44.538Z,1.22
2019-05-10T09:14:32.543Z,1.40
2019-05-10T09:17:04.610Z,1.40
2019-05-10T09:19:43.428Z,1.27
2019-05-10T09:22:12.780Z,1.30
2019-05-10T09:24:53.118Z,1.40
2019-05-10T09:27:28.945Z,1.60
2019-05-10T09:29:55.383Z,1.50
2019-05-10T09:32:28.915Z,1.60
2019-05-10T09:35:07.868Z,1.30
2019-05-10T09:37:35.658Z,1.10
2019-05-10T09:40:10.000Z,1.30
2019-05-10T09:42:42.692Z,1.37
2019-05-10T09:45:22.199Z,1.50
2019-05-10T09:47:53.006Z,1.20
2019-05-10T09:50:23.465Z,1.55
2019-05-10T09:52:53.137Z,1.27
2019-05-10T09:55:36.887Z,1.20
2019-05-10T09:58:10.207Z,1.37
2019-05-10T10:00:39.756Z,1.30
2019-05-10T10:05:55.067Z,1.30
2019-05-10T10:08:24.578Z,1.50
2019-05-10T12:08:24.114Z,1.22
2019-05-10T12:11:33.583Z,1.20
2019-05-10T12:14:03.018Z,0.82
2019-05-10T12:17:14.318Z,1.47
2019-05-10T12:19:47.986Z,1.40
2019-05-10T12:22:15.986Z,1.62
2019-05-10T12:27:44.239Z,1.10
2019-05-10T12:30:04.544Z,1.10
2019-05-10T12:32:46.886Z,1.10
2019-05-10T12:35:17.004Z,1.00
2019-05-10T12:37:53.870Z,1.23
2019-05-10T12:40:23.882Z,1.10
2019-05-10T12:42:51.102Z,1.13
2019-05-10T12:45:31.424Z,1.00
2019-05-10T12:48:01.438Z,1.20
2019-05-10T12:50:33.561Z,1.30
2019-05-10T12:53:13.333Z,1.10
2019-05-10T12:58:23.923Z,1.57
2019-05-10T13:00:54.684Z,1.40
2019-05-10T13:03:31.411Z,1.30
2019-05-10T13:05:58.596Z,1.03
2019-05-10T13:08:28.106Z,1.30
2019-05-10T13:10:57.310Z,1.50
2019-05-10T13:13:29.922Z,1.50
2019-05-10T13:18:50.431Z,1.47
2019-05-10T13:21:20.026Z,1.57
2019-05-10T13:23:44.206Z,1.57
2019-05-10T13:26:15.146Z,1.30
2019-05-10T13:28:44.345Z,1.60
2019-05-10T13:31:15.198Z,1.27
2019-05-10T13:33:44.551Z,1.27
2019-05-10T13:38:58.305Z,1.20
2019-05-10T13:41:27.692Z,1.03
2019-05-10T13:43:58.887Z,1.10
2019-05-10T13:46:36.787Z,1.40
2019-05-10T13:49:06.502Z,1.10
2019-05-10T13:51:35.702Z,1.50
2019-05-10T13:54:05.528Z,1.37
2019-05-10T14:00:14.814Z,1.40
2019-05-10T14:02:43.766Z,1.30
2019-05-10T14:05:17.729Z,1.33
2019-05-10T14:07:51.230Z,1.20
2019-05-10T14:10:18.134Z,1.00
2019-05-10T14:12:46.379Z,0.97
2019-05-10T14:15:15.449Z,1.30
2019-05-10T14:17:44.713Z,1.07
2019-05-10T14:20:36.996Z,1.00
2019-05-10T14:23:17.429Z,1.27
2019-05-10T14:28:36.604Z,0.97
2019-05-10T14:31:06.059Z,0.80
2019-05-10T14:33:35.553Z,1.10
2019-05-10T14:36:15.046Z,0.87
2019-05-10T14:38:47.186Z,0.90
2019-05-10T14:41:15.665Z,0.97
2019-05-10T14:43:45.057Z,0.80
2019-05-10T14:46:23.507Z,0.97
2019-05-10T14:48:52.566Z,0.83
2019-05-10T14:51:21.640Z,1.10
2019-05-10T14:53:58.361Z,1.20
2019-05-10T14:56:34.906Z,0.87
2019-05-10T14:59:05.441Z,0.97
2019-05-10T15:01:42.955Z,1.00
2019-05-10T15:04:10.214Z,0.90
2019-05-10T15:06:55.401Z,1.20
2019-05-10T15:09:25.137Z,0.90
2019-05-10T15:11:55.271Z,1.10
2019-05-10T15:14:29.629Z,1.30
2019-05-10T15:19:57.524Z,1.00
2019-05-10T15:26:17.803Z,0.70
2019-05-10T15:31:44.728Z,1.00
2019-05-10T15:34:20.164Z,1.83
2019-05-10T15:37:02.560Z,1.00
2019-05-10T15:46:06.321Z,0.87
2019-05-10T15:52:39.740Z,1.20
2019-05-10T15:56:13.163Z,1.23
2019-05-10T15:58:51.258Z,1.50
2019-05-10T16:01:27.074Z,1.37
2019-05-10T16:15:13.768Z,1.40
2019-05-10T16:20:31.574Z,1.27
2019-05-10T16:23:54.300Z,1.27
2019-05-10T16:26:24.586Z,1.23
2019-05-10T16:29:21.675Z,1.53
2019-05-10T16:32:04.618Z,1.30
2019-05-10T16:34:42.251Z,1.07
2019-05-10T16:37:19.148Z,1.90
2019-05-10T16:39:48.288Z,1.80
2019-05-10T16:42:20.343Z,1.40
2019-05-10T16:45:00.851Z,1.40
2019-05-10T16:50:36.529Z,1.20
2019-05-10T16:53:08.144Z,2.07
2019-05-10T16:55:42.759Z,1.40
2019-05-10T16:58:36.782Z,1.53
2019-05-10T17:01:05.097Z,2.40
2019-05-10T17:03:42.489Z,1.77
2019-05-10T17:06:12.098Z,1.40
2019-05-10T17:08:52.558Z,1.77
2019-05-10T17:11:21.853Z,1.07
2019-05-10T17:13:51.058Z,1.40
2019-05-10T17:16:19.948Z,1.40
2019-05-10T17:19:03.640Z,1.40
2019-05-10T17:21:42.817Z,1.50
2019-05-10T17:24:12.635Z,1.50
2019-05-10T17:26:42.301Z,1.30
2019-05-10T17:29:21.734Z,1.30
2019-05-10T17:31:52.090Z,1.13
2019-05-10T17:34:29.177Z,1.07
2019-05-10T17:36:57.836Z,1.60
2019-05-10T17:39:35.882Z,1.37
2019-05-10T17:42:05.836Z,1.27
2019-05-10T17:45:01.868Z,1.20
2019-05-10T17:47:36.467Z,1.40
2019-05-10T17:50:38.699Z,1.23
2019-05-10T17:53:08.166Z,1.20
2019-05-10T17:55:37.373Z,1.23
2019-05-10T17:58:57.990Z,1.20
2019-05-10T18:01:32.648Z,1.30
2019-05-10T18:04:06.109Z,1.13
2019-05-10T18:06:55.276Z,1.20
2019-05-10T18:09:41.397Z,1.47
2019-05-10T18:12:24.113Z,1.33
2019-05-10T18:14:55.821Z,1.70
2019-05-10T18:18:02.749Z,1.50
2019-05-10T18:23:52.806Z,1.20
2019-05-10T18:26:21.823Z,1.40
2019-05-10T18:29:07.277Z,1.50
2019-05-10T18:31:37.452Z,1.70
2019-05-10T18:34:26.302Z,1.60
2019-05-10T18:36:53.518Z,1.70
2019-05-10T18:39:31.846Z,2.33
2019-05-10T18:42:00.983Z,2.37
2019-05-10T18:44:31.073Z,2.57
2019-05-10T18:47:00.198Z,2.40
2019-05-10T18:52:12.962Z,2.13
2019-05-10T18:54:42.534Z,2.60
2019-05-10T18:57:18.788Z,2.90
2019-05-10T18:59:55.068Z,3.20
2019-05-10T19:02:26.822Z,2.80
2019-05-10T19:04:58.985Z,2.57
2019-05-10T19:07:28.669Z,2.27
2019-05-10T19:10:07.093Z,2.80
2019-05-10T19:12:36.594Z,2.30
2019-05-10T19:15:22.711Z,2.63
2019-05-10T19:17:51.854Z,2.20
2019-05-10T19:20:29.645Z,2.20
2019-05-10T19:22:58.886Z,2.20
2019-05-10T19:25:28.490Z,2.23
2019-05-10T19:27:57.626Z,3.23
2019-05-10T19:30:35.856Z,3.47
2019-05-10T19:33:04.957Z,4.07
2019-05-10T19:35:37.935Z,4.07
2019-05-10T19:38:07.088Z,4.83
2019-05-10T19:40:47.912Z,5.43
2019-05-10T19:43:21.584Z,4.47
2019-05-10T19:45:51.082Z,4.20
2019-05-10T19:48:20.414Z,3.60
2019-05-10T19:51:02.924Z,4.07
2019-05-10T19:53:36.352Z,4.20
2019-05-10T19:56:04.795Z,4.20
2019-05-10T19:58:34.151Z,3.97
2019-05-10T20:01:20.299Z,4.33
2019-05-10T20:03:49.601Z,3.50
2019-05-10T20:06:18.876Z,3.43
2019-05-10T20:08:50.526Z,3.57
2019-05-10T20:11:28.565Z,3.70
2019-05-10T20:13:58.005Z,3.77
2019-05-10T20:16:27.339Z,2.80
2019-05-10T20:18:58.280Z,3.07
2019-05-10T20:21:36.422Z,2.53
2019-05-10T20:24:05.646Z,2.90
2019-05-10T20:26:34.730Z,2.73
2019-05-10T20:29:05.887Z,3.40
2019-05-10T20:31:35.115Z,2.90
2019-05-10T20:34:06.581Z,2.80
2019-05-10T20:36:36.046Z,2.70
2019-05-10T20:39:07.053Z,2.90
2019-05-10T20:41:45.333Z,2.87
2019-05-10T20:44:14.440Z,3.40
2019-05-10T20:46:43.617Z,3.07
2019-05-10T20:49:12.724Z,3.10
2019-05-10T20:51:50.833Z,3.03
2019-05-10T20:54:20.031Z,3.00
2019-05-10T20:56:50.367Z,3.00
2019-05-10T20:59:23.275Z,3.20
2019-05-10T21:02:04.719Z,3.10
2019-05-10T21:04:34.528Z,3.00
2019-05-10T21:07:03.719Z,3.07
2019-05-10T21:09:34.584Z,3.30
2019-05-10T21:12:12.956Z,2.93
2019-05-10T21:14:42.180Z,3.10
2019-05-10T21:17:11.480Z,2.90
2019-05-10T21:19:40.790Z,2.93
2019-05-10T21:22:18.792Z,3.30
2019-05-10T21:24:50.785Z,3.03
2019-05-10T21:27:19.934Z,3.07
2019-05-10T21:29:54.671Z,2.73
2019-05-10T21:34:58.954Z,3.10
2019-05-10T21:37:28.008Z,2.73
2019-05-10T21:39:57.148Z,3.00
2019-05-10T21:42:35.174Z,2.80
2019-05-10T21:45:04.481Z,2.50
2019-05-10T21:47:33.622Z,2.83
2019-05-10T21:50:05.491Z,2.90
2019-05-10T21:52:49.745Z,3.23
2019-05-10T21:55:19.413Z,3.10
2019-05-10T21:57:49.022Z,3.60
2019-05-10T22:00:35.168Z,2.90
2019-05-10T22:03:05.035Z,3.30
